Terminal Aerodrome Forecast
Issued by NWS

Home | Current Version | Previous Version | Text Only | Print | Product List | Glossary On
Versions: 1 2 3 4 5 6 7 8 9 10 11 12 13 14 15 16 17 18 19
083
FTUS42 KMLB 041133
TAFLEE
TAF
KLEE 041133Z 0412/0512 21012KT 4SM -RA VCTS FEW008 BKN050CB OVC110
      TEMPO 0412/0416 3SM TSRA OVC019CB
     FM041700 27008KT P6SM VCSH BKN025 BKN040=

USA.gov is the U.S. government's official web portal to all federal, state and local government web resources and services.